sensor_id;sensor_type;location;lat;lon;timestamp;P1;durP1;ratioP1;P2;durP2;ratioP2
62580;SDS011;48640;48.770;9.148;2022-07-29T00:01:16;7.43;;;3.70;;
62580;SDS011;48640;48.770;9.148;2022-07-29T00:03:43;5.03;;;3.70;;
62580;SDS011;48640;48.770;9.148;2022-07-29T00:06:10;4.97;;;4.13;;
62580;SDS011;48640;48.770;9.148;2022-07-29T00:08:38;6.32;;;4.22;;
62580;SDS011;48640;48.770;9.148;2022-07-29T00:11:05;5.65;;;4.05;;
62580;SDS011;48640;48.770;9.148;2022-07-29T00:13:31;5.85;;;3.60;;
62580;SDS011;48640;48.770;9.148;2022-07-29T00:15:58;4.72;;;3.53;;
62580;SDS011;48640;48.770;9.148;2022-07-29T00:18:25;4.75;;;3.78;;
62580;SDS011;48640;48.770;9.148;2022-07-29T00:20:52;4.43;;;3.70;;
62580;SDS011;48640;48.770;9.148;2022-07-29T00:23:19;5.97;;;3.92;;
62580;SDS011;48640;48.770;9.148;2022-07-29T00:25:47;5.85;;;3.50;;
62580;SDS011;48640;48.770;9.148;2022-07-29T00:28:14;5.35;;;3.42;;
62580;SDS011;48640;48.770;9.148;2022-07-29T00:30:41;5.90;;;4.15;;
62580;SDS011;48640;48.770;9.148;2022-07-29T00:33:08;5.97;;;4.43;;
62580;SDS011;48640;48.770;9.148;2022-07-29T00:35:35;4.72;;;3.70;;
62580;SDS011;48640;48.770;9.148;2022-07-29T00:38:11;5.53;;;3.67;;
62580;SDS011;48640;48.770;9.148;2022-07-29T00:40:39;5.97;;;4.03;;
62580;SDS011;48640;48.770;9.148;2022-07-29T00:43:07;5.35;;;4.35;;
62580;SDS011;48640;48.770;9.148;2022-07-29T00:45:35;5.40;;;3.63;;
62580;SDS011;48640;48.770;9.148;2022-07-29T00:48:02;4.97;;;3.72;;
62580;SDS011;48640;48.770;9.148;2022-07-29T00:50:30;6.15;;;3.72;;
62580;SDS011;48640;48.770;9.148;2022-07-29T00:52:58;4.93;;;3.95;;
62580;SDS011;48640;48.770;9.148;2022-07-29T00:55:26;5.35;;;3.30;;
62580;SDS011;48640;48.770;9.148;2022-07-29T00:57:53;4.50;;;3.50;;
62580;SDS011;48640;48.770;9.148;2022-07-29T01:00:23;5.03;;;3.45;;
62580;SDS011;48640;48.770;9.148;2022-07-29T01:02:51;5.07;;;3.67;;
62580;SDS011;48640;48.770;9.148;2022-07-29T01:05:19;5.72;;;3.33;;
62580;SDS011;48640;48.770;9.148;2022-07-29T01:07:47;4.93;;;3.28;;
62580;SDS011;48640;48.770;9.148;2022-07-29T01:10:17;4.32;;;3.63;;
62580;SDS011;48640;48.770;9.148;2022-07-29T01:12:46;4.40;;;3.40;;
62580;SDS011;48640;48.770;9.148;2022-07-29T01:15:15;6.28;;;3.60;;
62580;SDS011;48640;48.770;9.148;2022-07-29T01:17:46;4.93;;;3.97;;
62580;SDS011;48640;48.770;9.148;2022-07-29T01:20:20;4.90;;;4.07;;
62580;SDS011;48640;48.770;9.148;2022-07-29T01:23:14;4.20;;;3.45;;
62580;SDS011;48640;48.770;9.148;2022-07-29T01:25:58;4.80;;;3.50;;
62580;SDS011;48640;48.770;9.148;2022-07-29T01:31:28;5.43;;;4.13;;
62580;SDS011;48640;48.770;9.148;2022-07-29T01:34:01;5.50;;;3.55;;
62580;SDS011;48640;48.770;9.148;2022-07-29T01:36:32;4.18;;;3.13;;
62580;SDS011;48640;48.770;9.148;2022-07-29T01:39:06;4.90;;;3.33;;
62580;SDS011;48640;48.770;9.148;2022-07-29T01:41:36;4.28;;;3.67;;
62580;SDS011;48640;48.770;9.148;2022-07-29T01:44:14;4.07;;;3.40;;
62580;SDS011;48640;48.770;9.148;2022-07-29T01:46:49;4.00;;;2.80;;
62580;SDS011;48640;48.770;9.148;2022-07-29T01:49:20;3.95;;;3.20;;
62580;SDS011;48640;48.770;9.148;2022-07-29T01:51:50;4.47;;;3.10;;
62580;SDS011;48640;48.770;9.148;2022-07-29T01:54:30;5.90;;;3.35;;
62580;SDS011;48640;48.770;9.148;2022-07-29T01:57:01;4.95;;;2.72;;
62580;SDS011;48640;48.770;9.148;2022-07-29T01:59:32;3.97;;;3.05;;
62580;SDS011;48640;48.770;9.148;2022-07-29T02:02:01;4.57;;;3.60;;
62580;SDS011;48640;48.770;9.148;2022-07-29T02:04:28;5.38;;;3.30;;
62580;SDS011;48640;48.770;9.148;2022-07-29T02:06:58;4.60;;;3.20;;
62580;SDS011;48640;48.770;9.148;2022-07-29T02:09:29;5.05;;;3.80;;
62580;SDS011;48640;48.770;9.148;2022-07-29T02:11:57;3.90;;;3.03;;
62580;SDS011;48640;48.770;9.148;2022-07-29T02:14:27;4.43;;;3.13;;
62580;SDS011;48640;48.770;9.148;2022-07-29T02:16:58;4.20;;;2.85;;
62580;SDS011;48640;48.770;9.148;2022-07-29T02:19:27;5.03;;;3.53;;
62580;SDS011;48640;48.770;9.148;2022-07-29T02:21:57;3.97;;;3.03;;
62580;SDS011;48640;48.770;9.148;2022-07-29T02:24:26;4.00;;;3.08;;
62580;SDS011;48640;48.770;9.148;2022-07-29T02:26:55;4.47;;;2.85;;
62580;SDS011;48640;48.770;9.148;2022-07-29T02:29:25;5.70;;;2.83;;
62580;SDS011;48640;48.770;9.148;2022-07-29T02:31:53;4.78;;;2.88;;
62580;SDS011;48640;48.770;9.148;2022-07-29T02:34:24;3.80;;;2.92;;
62580;SDS011;48640;48.770;9.148;2022-07-29T02:36:52;4.50;;;2.97;;
62580;SDS011;48640;48.770;9.148;2022-07-29T02:39:21;5.40;;;2.80;;
62580;SDS011;48640;48.770;9.148;2022-07-29T02:41:51;3.72;;;2.72;;
62580;SDS011;48640;48.770;9.148;2022-07-29T02:44:23;4.28;;;3.05;;
62580;SDS011;48640;48.770;9.148;2022-07-29T02:46:52;3.72;;;2.95;;
62580;SDS011;48640;48.770;9.148;2022-07-29T02:49:29;3.40;;;2.42;;
62580;SDS011;48640;48.770;9.148;2022-07-29T02:52:02;3.00;;;2.30;;
62580;SDS011;48640;48.770;9.148;2022-07-29T02:54:33;4.00;;;2.22;;
62580;SDS011;48640;48.770;9.148;2022-07-29T02:57:06;4.00;;;2.50;;
62580;SDS011;48640;48.770;9.148;2022-07-29T02:59:40;3.72;;;2.47;;
62580;SDS011;48640;48.770;9.148;2022-07-29T03:04:39;3.35;;;2.33;;
62580;SDS011;48640;48.770;9.148;2022-07-29T03:07:08;4.45;;;2.58;;
62580;SDS011;48640;48.770;9.148;2022-07-29T03:09:36;3.45;;;2.47;;
62580;SDS011;48640;48.770;9.148;2022-07-29T03:12:04;4.13;;;2.63;;
62580;SDS011;48640;48.770;9.148;2022-07-29T03:14:32;3.70;;;2.58;;
62580;SDS011;48640;48.770;9.148;2022-07-29T03:16:59;4.63;;;2.60;;
62580;SDS011;48640;48.770;9.148;2022-07-29T03:19:26;4.35;;;2.63;;
62580;SDS011;48640;48.770;9.148;2022-07-29T03:21:56;4.47;;;2.85;;
62580;SDS011;48640;48.770;9.148;2022-07-29T03:24:27;4.90;;;2.75;;
62580;SDS011;48640;48.770;9.148;2022-07-29T03:26:57;3.65;;;2.83;;
62580;SDS011;48640;48.770;9.148;2022-07-29T03:29:24;6.22;;;2.85;;
62580;SDS011;48640;48.770;9.148;2022-07-29T03:31:52;6.13;;;3.25;;
62580;SDS011;48640;48.770;9.148;2022-07-29T03:34:19;3.75;;;2.75;;
62580;SDS011;48640;48.770;9.148;2022-07-29T03:36:46;3.45;;;2.80;;
62580;SDS011;48640;48.770;9.148;2022-07-29T03:39:17;4.07;;;2.63;;
62580;SDS011;48640;48.770;9.148;2022-07-29T03:41:47;5.63;;;2.60;;
62580;SDS011;48640;48.770;9.148;2022-07-29T03:44:16;3.42;;;2.50;;
62580;SDS011;48640;48.770;9.148;2022-07-29T03:46:43;3.33;;;2.70;;
62580;SDS011;48640;48.770;9.148;2022-07-29T03:49:12;4.40;;;2.70;;
62580;SDS011;48640;48.770;9.148;2022-07-29T03:51:42;3.40;;;2.70;;
62580;SDS011;48640;48.770;9.148;2022-07-29T03:54:09;4.63;;;3.05;;
62580;SDS011;48640;48.770;9.148;2022-07-29T03:56:39;5.00;;;3.17;;
62580;SDS011;48640;48.770;9.148;2022-07-29T03:59:11;4.00;;;3.10;;
62580;SDS011;48640;48.770;9.148;2022-07-29T04:01:40;4.10;;;3.03;;
62580;SDS011;48640;48.770;9.148;2022-07-29T04:04:08;5.65;;;3.35;;
62580;SDS011;48640;48.770;9.148;2022-07-29T04:06:38;6.68;;;3.00;;
62580;SDS011;48640;48.770;9.148;2022-07-29T04:09:06;3.33;;;2.40;;
62580;SDS011;48640;48.770;9.148;2022-07-29T04:11:33;3.20;;;2.53;;
62580;SDS011;48640;48.770;9.148;2022-07-29T04:14:03;3.40;;;2.33;;
62580;SDS011;48640;48.770;9.148;2022-07-29T04:16:30;3.55;;;2.58;;
62580;SDS011;48640;48.770;9.148;2022-07-29T04:18:57;5.20;;;2.67;;
62580;SDS011;48640;48.770;9.148;2022-07-29T04:21:25;3.53;;;2.65;;
62580;SDS011;48640;48.770;9.148;2022-07-29T04:23:51;3.47;;;2.60;;
62580;SDS011;48640;48.770;9.148;2022-07-29T04:26:19;3.97;;;2.60;;
62580;SDS011;48640;48.770;9.148;2022-07-29T04:28:46;3.75;;;3.13;;
62580;SDS011;48640;48.770;9.148;2022-07-29T04:31:14;3.28;;;2.35;;
62580;SDS011;48640;48.770;9.148;2022-07-29T04:33:41;3.35;;;2.20;;
62580;SDS011;48640;48.770;9.148;2022-07-29T04:36:08;3.97;;;2.67;;
62580;SDS011;48640;48.770;9.148;2022-07-29T04:38:36;3.95;;;2.28;;
62580;SDS011;48640;48.770;9.148;2022-07-29T04:41:03;3.67;;;2.30;;
62580;SDS011;48640;48.770;9.148;2022-07-29T04:43:31;3.63;;;2.00;;
62580;SDS011;48640;48.770;9.148;2022-07-29T04:45:58;3.28;;;2.08;;
62580;SDS011;48640;48.770;9.148;2022-07-29T04:48:27;4.05;;;2.20;;
62580;SDS011;48640;48.770;9.148;2022-07-29T04:50:54;3.28;;;2.08;;
62580;SDS011;48640;48.770;9.148;2022-07-29T04:53:21;3.42;;;2.05;;
62580;SDS011;48640;48.770;9.148;2022-07-29T04:55:47;3.28;;;2.35;;
62580;SDS011;48640;48.770;9.148;2022-07-29T04:58:14;2.70;;;1.95;;
62580;SDS011;48640;48.770;9.148;2022-07-29T05:00:41;3.88;;;2.25;;
62580;SDS011;48640;48.770;9.148;2022-07-29T05:03:08;5.55;;;2.17;;
62580;SDS011;48640;48.770;9.148;2022-07-29T05:05:37;2.53;;;1.73;;
62580;SDS011;48640;48.770;9.148;2022-07-29T05:08:04;2.78;;;1.98;;
62580;SDS011;48640;48.770;9.148;2022-07-29T05:10:31;3.22;;;1.83;;
62580;SDS011;48640;48.770;9.148;2022-07-29T05:13:00;3.03;;;1.75;;
62580;SDS011;48640;48.770;9.148;2022-07-29T05:15:27;3.50;;;1.80;;
62580;SDS011;48640;48.770;9.148;2022-07-29T05:17:54;2.83;;;1.35;;
62580;SDS011;48640;48.770;9.148;2022-07-29T05:20:21;2.80;;;1.70;;
62580;SDS011;48640;48.770;9.148;2022-07-29T05:22:52;3.63;;;2.50;;
62580;SDS011;48640;48.770;9.148;2022-07-29T05:25:20;3.03;;;1.60;;
62580;SDS011;48640;48.770;9.148;2022-07-29T05:27:47;2.75;;;1.92;;
62580;SDS011;48640;48.770;9.148;2022-07-29T05:30:14;2.28;;;1.58;;
62580;SDS011;48640;48.770;9.148;2022-07-29T05:32:41;4.10;;;1.58;;
62580;SDS011;48640;48.770;9.148;2022-07-29T05:35:08;2.35;;;1.38;;
62580;SDS011;48640;48.770;9.148;2022-07-29T05:37:35;3.40;;;1.88;;
62580;SDS011;48640;48.770;9.148;2022-07-29T05:40:04;3.40;;;1.63;;
62580;SDS011;48640;48.770;9.148;2022-07-29T05:42:32;3.88;;;1.83;;
62580;SDS011;48640;48.770;9.148;2022-07-29T05:44:59;2.47;;;1.60;;
62580;SDS011;48640;48.770;9.148;2022-07-29T05:47:26;4.15;;;1.55;;
62580;SDS011;48640;48.770;9.148;2022-07-29T05:49:53;2.88;;;1.58;;
62580;SDS011;48640;48.770;9.148;2022-07-29T05:52:20;6.57;;;2.28;;
62580;SDS011;48640;48.770;9.148;2022-07-29T05:54:47;2.58;;;1.60;;
62580;SDS011;48640;48.770;9.148;2022-07-29T05:57:16;4.45;;;2.00;;
62580;SDS011;48640;48.770;9.148;2022-07-29T05:59:44;2.78;;;1.73;;
62580;SDS011;48640;48.770;9.148;2022-07-29T06:02:11;4.05;;;1.75;;
62580;SDS011;48640;48.770;9.148;2022-07-29T06:04:38;2.65;;;1.90;;
62580;SDS011;48640;48.770;9.148;2022-07-29T06:07:05;2.83;;;1.98;;
62580;SDS011;48640;48.770;9.148;2022-07-29T06:09:32;5.75;;;2.00;;
62580;SDS011;48640;48.770;9.148;2022-07-29T06:11:59;2.80;;;1.60;;
62580;SDS011;48640;48.770;9.148;2022-07-29T06:14:28;3.03;;;1.80;;
62580;SDS011;48640;48.770;9.148;2022-07-29T06:16:55;3.22;;;1.70;;
62580;SDS011;48640;48.770;9.148;2022-07-29T06:19:21;5.65;;;2.08;;
62580;SDS011;48640;48.770;9.148;2022-07-29T06:21:48;2.95;;;1.65;;
62580;SDS011;48640;48.770;9.148;2022-07-29T06:24:16;3.03;;;2.10;;
62580;SDS011;48640;48.770;9.148;2022-07-29T06:26:43;3.13;;;2.10;;
62580;SDS011;48640;48.770;9.148;2022-07-29T06:29:10;3.50;;;1.80;;
62580;SDS011;48640;48.770;9.148;2022-07-29T06:31:38;2.75;;;1.58;;
62580;SDS011;48640;48.770;9.148;2022-07-29T06:34:05;4.43;;;1.77;;
62580;SDS011;48640;48.770;9.148;2022-07-29T06:36:34;2.83;;;1.40;;
62580;SDS011;48640;48.770;9.148;2022-07-29T06:39:03;4.80;;;1.98;;
62580;SDS011;48640;48.770;9.148;2022-07-29T06:41:31;3.58;;;2.15;;
62580;SDS011;48640;48.770;9.148;2022-07-29T06:43:58;3.53;;;1.95;;
62580;SDS011;48640;48.770;9.148;2022-07-29T06:46:25;3.30;;;2.17;;
62580;SDS011;48640;48.770;9.148;2022-07-29T06:48:54;3.20;;;2.20;;
62580;SDS011;48640;48.770;9.148;2022-07-29T06:51:20;2.85;;;1.50;;
62580;SDS011;48640;48.770;9.148;2022-07-29T06:53:48;3.30;;;2.03;;
62580;SDS011;48640;48.770;9.148;2022-07-29T06:56:15;3.42;;;1.92;;
62580;SDS011;48640;48.770;9.148;2022-07-29T06:58:42;5.05;;;2.30;;
62580;SDS011;48640;48.770;9.148;2022-07-29T07:01:09;3.47;;;2.55;;
62580;SDS011;48640;48.770;9.148;2022-07-29T07:03:36;3.47;;;2.30;;
62580;SDS011;48640;48.770;9.148;2022-07-29T07:06:04;2.97;;;1.95;;
62580;SDS011;48640;48.770;9.148;2022-07-29T07:08:31;5.33;;;2.57;;
62580;SDS011;48640;48.770;9.148;2022-07-29T07:10:58;3.65;;;2.10;;
62580;SDS011;48640;48.770;9.148;2022-07-29T07:13:25;3.75;;;2.55;;
62580;SDS011;48640;48.770;9.148;2022-07-29T07:15:53;4.43;;;2.42;;
62580;SDS011;48640;48.770;9.148;2022-07-29T07:18:20;3.85;;;2.20;;
62580;SDS011;48640;48.770;9.148;2022-07-29T07:20:46;3.10;;;2.08;;
62580;SDS011;48640;48.770;9.148;2022-07-29T07:23:15;3.38;;;2.00;;
62580;SDS011;48640;48.770;9.148;2022-07-29T07:25:42;3.70;;;2.40;;
62580;SDS011;48640;48.770;9.148;2022-07-29T07:28:08;3.75;;;1.98;;
62580;SDS011;48640;48.770;9.148;2022-07-29T07:30:35;4.03;;;2.38;;
62580;SDS011;48640;48.770;9.148;2022-07-29T07:33:02;4.38;;;2.30;;
62580;SDS011;48640;48.770;9.148;2022-07-29T07:35:29;4.38;;;2.08;;
62580;SDS011;48640;48.770;9.148;2022-07-29T07:37:56;3.53;;;2.33;;
62580;SDS011;48640;48.770;9.148;2022-07-29T07:40:25;4.03;;;1.98;;
62580;SDS011;48640;48.770;9.148;2022-07-29T07:42:52;4.20;;;1.83;;
62580;SDS011;48640;48.770;9.148;2022-07-29T07:45:19;3.35;;;2.35;;
62580;SDS011;48640;48.770;9.148;2022-07-29T07:47:46;2.90;;;2.15;;
62580;SDS011;48640;48.770;9.148;2022-07-29T07:50:13;4.60;;;2.25;;
62580;SDS011;48640;48.770;9.148;2022-07-29T07:52:45;4.32;;;2.50;;
62580;SDS011;48640;48.770;9.148;2022-07-29T07:55:13;3.55;;;2.08;;
62580;SDS011;48640;48.770;9.148;2022-07-29T07:57:42;3.70;;;2.65;;
62580;SDS011;48640;48.770;9.148;2022-07-29T08:00:09;6.82;;;2.28;;
62580;SDS011;48640;48.770;9.148;2022-07-29T08:02:39;4.70;;;2.35;;
62580;SDS011;48640;48.770;9.148;2022-07-29T08:05:08;3.83;;;2.10;;
62580;SDS011;48640;48.770;9.148;2022-07-29T08:07:35;3.47;;;2.10;;
62580;SDS011;48640;48.770;9.148;2022-07-29T08:10:03;5.60;;;2.30;;
62580;SDS011;48640;48.770;9.148;2022-07-29T08:12:30;3.77;;;2.27;;
62580;SDS011;48640;48.770;9.148;2022-07-29T08:14:59;4.03;;;2.58;;
62580;SDS011;48640;48.770;9.148;2022-07-29T08:17:26;7.65;;;2.45;;
62580;SDS011;48640;48.770;9.148;2022-07-29T08:19:53;3.85;;;2.50;;
62580;SDS011;48640;48.770;9.148;2022-07-29T08:22:20;3.85;;;1.88;;
62580;SDS011;48640;48.770;9.148;2022-07-29T08:24:47;6.15;;;2.63;;
62580;SDS011;48640;48.770;9.148;2022-07-29T08:27:19;2.78;;;1.95;;
62580;SDS011;48640;48.770;9.148;2022-07-29T08:29:46;4.70;;;2.38;;
62580;SDS011;48640;48.770;9.148;2022-07-29T08:32:15;6.05;;;2.72;;
62580;SDS011;48640;48.770;9.148;2022-07-29T08:34:42;3.65;;;2.30;;
62580;SDS011;48640;48.770;9.148;2022-07-29T08:37:11;7.57;;;3.85;;
62580;SDS011;48640;48.770;9.148;2022-07-29T08:39:38;4.28;;;2.70;;
62580;SDS011;48640;48.770;9.148;2022-07-29T08:42:05;3.60;;;2.35;;
62580;SDS011;48640;48.770;9.148;2022-07-29T08:44:33;3.88;;;2.42;;
62580;SDS011;48640;48.770;9.148;2022-07-29T08:47:00;2.80;;;2.17;;
62580;SDS011;48640;48.770;9.148;2022-07-29T08:49:29;5.35;;;2.88;;
62580;SDS011;48640;48.770;9.148;2022-07-29T08:51:56;7.13;;;2.70;;
62580;SDS011;48640;48.770;9.148;2022-07-29T08:54:24;5.05;;;2.30;;
62580;SDS011;48640;48.770;9.148;2022-07-29T08:56:51;4.35;;;2.60;;
62580;SDS011;48640;48.770;9.148;2022-07-29T08:59:19;3.60;;;2.63;;
62580;SDS011;48640;48.770;9.148;2022-07-29T09:01:47;4.45;;;2.78;;
62580;SDS011;48640;48.770;9.148;2022-07-29T09:04:16;3.40;;;2.33;;
62580;SDS011;48640;48.770;9.148;2022-07-29T09:09:15;4.75;;;2.75;;
62580;SDS011;48640;48.770;9.148;2022-07-29T09:11:42;5.72;;;2.72;;
62580;SDS011;48640;48.770;9.148;2022-07-29T09:14:10;3.45;;;2.15;;
62580;SDS011;48640;48.770;9.148;2022-07-29T09:16:48;6.65;;;2.80;;
62580;SDS011;48640;48.770;9.148;2022-07-29T09:19:24;5.88;;;2.80;;
62580;SDS011;48640;48.770;9.148;2022-07-29T09:21:54;4.43;;;2.40;;
62580;SDS011;48640;48.770;9.148;2022-07-29T09:24:26;6.00;;;2.22;;
62580;SDS011;48640;48.770;9.148;2022-07-29T09:27:01;4.50;;;1.92;;
62580;SDS011;48640;48.770;9.148;2022-07-29T09:29:28;3.10;;;2.05;;
62580;SDS011;48640;48.770;9.148;2022-07-29T09:31:56;5.97;;;2.33;;
62580;SDS011;48640;48.770;9.148;2022-07-29T09:34:24;5.55;;;2.33;;
62580;SDS011;48640;48.770;9.148;2022-07-29T09:36:53;7.25;;;2.90;;
62580;SDS011;48640;48.770;9.148;2022-07-29T09:39:28;4.43;;;2.95;;
62580;SDS011;48640;48.770;9.148;2022-07-29T09:41:56;3.97;;;2.83;;
62580;SDS011;48640;48.770;9.148;2022-07-29T09:44:24;4.25;;;3.08;;
62580;SDS011;48640;48.770;9.148;2022-07-29T09:46:52;3.88;;;2.63;;
62580;SDS011;48640;48.770;9.148;2022-07-29T09:51:47;6.00;;;2.70;;
62580;SDS011;48640;48.770;9.148;2022-07-29T09:54:22;5.03;;;2.90;;
62580;SDS011;48640;48.770;9.148;2022-07-29T09:56:49;4.32;;;3.40;;
62580;SDS011;48640;48.770;9.148;2022-07-29T09:59:16;6.38;;;3.10;;
62580;SDS011;48640;48.770;9.148;2022-07-29T10:01:46;10.73;;;3.50;;
62580;SDS011;48640;48.770;9.148;2022-07-29T10:04:15;8.25;;;3.35;;
62580;SDS011;48640;48.770;9.148;2022-07-29T10:06:57;5.55;;;3.05;;
62580;SDS011;48640;48.770;9.148;2022-07-29T10:09:27;4.47;;;3.40;;
62580;SDS011;48640;48.770;9.148;2022-07-29T10:12:06;6.25;;;3.08;;
62580;SDS011;48640;48.770;9.148;2022-07-29T10:14:36;6.53;;;2.75;;
62580;SDS011;48640;48.770;9.148;2022-07-29T10:17:04;4.72;;;2.97;;
62580;SDS011;48640;48.770;9.148;2022-07-29T10:19:32;10.50;;;3.38;;
62580;SDS011;48640;48.770;9.148;2022-07-29T10:22:01;8.50;;;3.30;;
62580;SDS011;48640;48.770;9.148;2022-07-29T10:24:30;7.40;;;3.55;;
62580;SDS011;48640;48.770;9.148;2022-07-29T10:26:59;6.00;;;2.95;;
62580;SDS011;48640;48.770;9.148;2022-07-29T10:29:26;13.43;;;4.53;;
62580;SDS011;48640;48.770;9.148;2022-07-29T10:31:59;10.07;;;3.95;;
62580;SDS011;48640;48.770;9.148;2022-07-29T10:35:06;8.07;;;3.72;;
62580;SDS011;48640;48.770;9.148;2022-07-29T10:38:02;6.35;;;3.13;;
62580;SDS011;48640;48.770;9.148;2022-07-29T10:41:00;9.43;;;3.40;;
62580;SDS011;48640;48.770;9.148;2022-07-29T10:43:53;4.70;;;3.08;;
62580;SDS011;48640;48.770;9.148;2022-07-29T10:46:24;7.38;;;3.13;;
62580;SDS011;48640;48.770;9.148;2022-07-29T10:49:07;6.10;;;3.85;;
62580;SDS011;48640;48.770;9.148;2022-07-29T10:51:54;10.52;;;4.32;;
62580;SDS011;48640;48.770;9.148;2022-07-29T10:54:41;5.13;;;3.60;;
62580;SDS011;48640;48.770;9.148;2022-07-29T10:57:16;6.10;;;4.05;;
62580;SDS011;48640;48.770;9.148;2022-07-29T10:59:46;9.20;;;4.28;;
62580;SDS011;48640;48.770;9.148;2022-07-29T11:05:11;7.05;;;4.43;;
62580;SDS011;48640;48.770;9.148;2022-07-29T11:07:39;8.65;;;3.97;;
62580;SDS011;48640;48.770;9.148;2022-07-29T11:10:26;6.80;;;3.63;;
62580;SDS011;48640;48.770;9.148;2022-07-29T11:12:54;5.53;;;3.85;;
62580;SDS011;48640;48.770;9.148;2022-07-29T11:15:22;8.45;;;5.00;;
62580;SDS011;48640;48.770;9.148;2022-07-29T11:18:05;13.20;;;5.60;;
62580;SDS011;48640;48.770;9.148;2022-07-29T11:20:34;9.07;;;4.90;;
62580;SDS011;48640;48.770;9.148;2022-07-29T11:23:17;11.10;;;6.38;;
62580;SDS011;48640;48.770;9.148;2022-07-29T11:26:12;9.75;;;5.93;;
62580;SDS011;48640;48.770;9.148;2022-07-29T11:28:48;7.65;;;5.43;;
62580;SDS011;48640;48.770;9.148;2022-07-29T11:31:19;6.68;;;5.15;;
62580;SDS011;48640;48.770;9.148;2022-07-29T11:40:09;8.80;;;5.70;;
62580;SDS011;48640;48.770;9.148;2022-07-29T11:42:47;8.75;;;5.55;;
62580;SDS011;48640;48.770;9.148;2022-07-29T11:45:17;8.30;;;6.03;;
62580;SDS011;48640;48.770;9.148;2022-07-29T11:47:47;9.90;;;5.95;;
62580;SDS011;48640;48.770;9.148;2022-07-29T11:50:26;8.65;;;5.75;;
62580;SDS011;48640;48.770;9.148;2022-07-29T11:52:55;7.47;;;6.18;;
62580;SDS011;48640;48.770;9.148;2022-07-29T11:55:23;9.18;;;5.60;;
62580;SDS011;48640;48.770;9.148;2022-07-29T11:57:51;7.28;;;5.30;;
62580;SDS011;48640;48.770;9.148;2022-07-29T12:00:22;8.07;;;5.45;;
62580;SDS011;48640;48.770;9.148;2022-07-29T12:02:50;9.93;;;6.60;;
62580;SDS011;48640;48.770;9.148;2022-07-29T12:05:17;8.77;;;5.22;;
62580;SDS011;48640;48.770;9.148;2022-07-29T12:07:46;8.07;;;4.90;;
62580;SDS011;48640;48.770;9.148;2022-07-29T12:10:13;7.30;;;5.55;;
62580;SDS011;48640;48.770;9.148;2022-07-29T12:12:40;6.32;;;4.65;;
62580;SDS011;48640;48.770;9.148;2022-07-29T12:15:14;6.18;;;4.60;;
62580;SDS011;48640;48.770;9.148;2022-07-29T12:17:46;7.65;;;3.88;;
62580;SDS011;48640;48.770;9.148;2022-07-29T12:20:13;4.53;;;3.37;;
62580;SDS011;48640;48.770;9.148;2022-07-29T12:22:49;7.18;;;4.63;;
62580;SDS011;48640;48.770;9.148;2022-07-29T12:25:19;5.55;;;2.85;;
62580;SDS011;48640;48.770;9.148;2022-07-29T12:27:47;4.53;;;3.27;;
62580;SDS011;48640;48.770;9.148;2022-07-29T12:30:23;5.03;;;3.30;;
62580;SDS011;48640;48.770;9.148;2022-07-29T12:33:09;6.43;;;3.38;;
62580;SDS011;48640;48.770;9.148;2022-07-29T12:35:41;5.95;;;3.47;;
62580;SDS011;48640;48.770;9.148;2022-07-29T12:38:09;5.38;;;3.90;;
62580;SDS011;48640;48.770;9.148;2022-07-29T12:40:37;6.68;;;4.30;;
62580;SDS011;48640;48.770;9.148;2022-07-29T12:43:04;8.02;;;3.95;;
62580;SDS011;48640;48.770;9.148;2022-07-29T12:45:32;4.57;;;3.38;;
62580;SDS011;48640;48.770;9.148;2022-07-29T12:47:59;4.80;;;3.58;;
62580;SDS011;48640;48.770;9.148;2022-07-29T12:50:27;7.00;;;3.40;;
62580;SDS011;48640;48.770;9.148;2022-07-29T12:52:54;6.70;;;3.33;;
62580;SDS011;48640;48.770;9.148;2022-07-29T12:55:38;4.97;;;3.58;;
62580;SDS011;48640;48.770;9.148;2022-07-29T12:58:06;5.93;;;3.40;;
62580;SDS011;48640;48.770;9.148;2022-07-29T13:00:33;5.25;;;4.05;;
62580;SDS011;48640;48.770;9.148;2022-07-29T13:03:00;5.07;;;3.10;;
62580;SDS011;48640;48.770;9.148;2022-07-29T13:05:39;6.22;;;3.17;;
62580;SDS011;48640;48.770;9.148;2022-07-29T13:08:11;5.13;;;3.15;;
62580;SDS011;48640;48.770;9.148;2022-07-29T13:10:38;6.65;;;3.65;;
62580;SDS011;48640;48.770;9.148;2022-07-29T13:13:07;4.70;;;3.58;;
62580;SDS011;48640;48.770;9.148;2022-07-29T13:15:35;5.13;;;3.50;;
62580;SDS011;48640;48.770;9.148;2022-07-29T13:18:02;5.43;;;3.33;;
62580;SDS011;48640;48.770;9.148;2022-07-29T13:20:30;5.10;;;3.03;;
62580;SDS011;48640;48.770;9.148;2022-07-29T13:22:59;4.32;;;3.03;;
62580;SDS011;48640;48.770;9.148;2022-07-29T13:25:27;7.35;;;4.15;;
62580;SDS011;48640;48.770;9.148;2022-07-29T13:27:55;7.57;;;3.55;;
62580;SDS011;48640;48.770;9.148;2022-07-29T13:30:22;6.28;;;3.95;;
62580;SDS011;48640;48.770;9.148;2022-07-29T13:32:50;6.05;;;3.55;;
62580;SDS011;48640;48.770;9.148;2022-07-29T13:35:17;4.75;;;3.38;;
62580;SDS011;48640;48.770;9.148;2022-07-29T13:37:46;6.03;;;4.78;;
62580;SDS011;48640;48.770;9.148;2022-07-29T13:40:14;8.43;;;5.07;;
62580;SDS011;48640;48.770;9.148;2022-07-29T13:42:41;5.97;;;4.00;;
62580;SDS011;48640;48.770;9.148;2022-07-29T13:45:09;5.65;;;3.92;;
62580;SDS011;48640;48.770;9.148;2022-07-29T13:47:37;6.38;;;4.60;;
62580;SDS011;48640;48.770;9.148;2022-07-29T13:50:05;6.47;;;4.35;;
62580;SDS011;48640;48.770;9.148;2022-07-29T13:52:35;5.32;;;3.80;;
62580;SDS011;48640;48.770;9.148;2022-07-29T13:55:02;6.40;;;4.32;;
62580;SDS011;48640;48.770;9.148;2022-07-29T13:57:31;5.55;;;4.00;;
62580;SDS011;48640;48.770;9.148;2022-07-29T13:59:58;6.78;;;4.30;;
62580;SDS011;48640;48.770;9.148;2022-07-29T14:02:25;5.78;;;4.25;;
62580;SDS011;48640;48.770;9.148;2022-07-29T14:04:52;6.10;;;4.28;;
62580;SDS011;48640;48.770;9.148;2022-07-29T14:07:19;5.32;;;4.10;;
62580;SDS011;48640;48.770;9.148;2022-07-29T14:09:46;5.32;;;4.30;;
62580;SDS011;48640;48.770;9.148;2022-07-29T14:12:12;6.15;;;3.83;;
62580;SDS011;48640;48.770;9.148;2022-07-29T14:14:41;5.45;;;3.75;;
62580;SDS011;48640;48.770;9.148;2022-07-29T14:17:07;4.70;;;3.40;;
62580;SDS011;48640;48.770;9.148;2022-07-29T14:19:34;6.18;;;4.57;;
62580;SDS011;48640;48.770;9.148;2022-07-29T14:22:02;6.20;;;4.55;;
62580;SDS011;48640;48.770;9.148;2022-07-29T14:24:30;6.65;;;4.00;;
62580;SDS011;48640;48.770;9.148;2022-07-29T14:26:57;5.88;;;3.60;;
62580;SDS011;48640;48.770;9.148;2022-07-29T14:29:24;5.47;;;3.72;;
62580;SDS011;48640;48.770;9.148;2022-07-29T14:31:52;6.97;;;3.50;;
62580;SDS011;48640;48.770;9.148;2022-07-29T14:34:19;5.80;;;3.60;;
62580;SDS011;48640;48.770;9.148;2022-07-29T14:36:45;8.15;;;3.65;;
62580;SDS011;48640;48.770;9.148;2022-07-29T14:39:12;6.13;;;3.50;;
62580;SDS011;48640;48.770;9.148;2022-07-29T14:41:40;5.47;;;3.38;;
62580;SDS011;48640;48.770;9.148;2022-07-29T14:44:07;5.88;;;3.50;;
62580;SDS011;48640;48.770;9.148;2022-07-29T14:46:34;6.40;;;2.90;;
62580;SDS011;48640;48.770;9.148;2022-07-29T14:49:02;5.22;;;3.05;;
62580;SDS011;48640;48.770;9.148;2022-07-29T14:51:30;4.93;;;3.28;;
62580;SDS011;48640;48.770;9.148;2022-07-29T14:53:57;4.68;;;2.85;;
62580;SDS011;48640;48.770;9.148;2022-07-29T14:56:24;6.13;;;3.55;;
62580;SDS011;48640;48.770;9.148;2022-07-29T14:58:51;3.85;;;2.95;;
62580;SDS011;48640;48.770;9.148;2022-07-29T15:01:18;4.47;;;3.50;;
62580;SDS011;48640;48.770;9.148;2022-07-29T15:03:45;8.02;;;4.13;;
62580;SDS011;48640;48.770;9.148;2022-07-29T15:06:13;6.93;;;4.13;;
62580;SDS011;48640;48.770;9.148;2022-07-29T15:08:40;5.07;;;4.13;;
62580;SDS011;48640;48.770;9.148;2022-07-29T15:11:07;6.35;;;4.32;;
62580;SDS011;48640;48.770;9.148;2022-07-29T15:13:34;7.63;;;4.68;;
62580;SDS011;48640;48.770;9.148;2022-07-29T15:16:01;4.93;;;4.22;;
62580;SDS011;48640;48.770;9.148;2022-07-29T15:18:28;7.03;;;4.72;;
62580;SDS011;48640;48.770;9.148;2022-07-29T15:20:55;8.65;;;5.10;;